• Join FlightAware (Why Join?)
  • Login
  • US Flag 
02:25AM EDT


 

Airport Tracker/Info


-or-


 

Live Flight TrackerFlight Track Log ✈ AWE1730 ✈ 12-Mar-2012 ✈ KCLT - KDCA

Flight Track Log - Related Links

Times and Time Zones

All times are in EDT time to prevent confusion due to time zone crossing. See the AWE1730 flight status page for this flight to view local times or setup timezone preferences in your user account.

Time Position Orientation Groundspeed Altitude Reporting Facility
EDT Latitude Longitude Course Direction KTS MPH feet Rate Location/Type
11:45AM 35.1871 -80.9290 196° South  Level FlightAware Approximate
11:46AM 35.1778 -80.9322 164° South 150 173 2,800  Level FAA TRACON SMA TRACON (SMA)
11:46AM 35.1436 -80.9200 112° Southeast 190 219 4,400 2,340 Climbing FAA TRACON SMA TRACON (SMA)
11:47AM 35.1311 -80.8828 109° East 220 253 5,900 2,340 Climbing FAA TRACON SMA TRACON (SMA)
11:48AM 35.1144 -80.8247 108° East 265 305 7,500 1,620 Climbing FAA TRACON SMA TRACON (SMA)
11:48AM 35.0958 -80.7547 62° Northeast 293 337 8,100 1,680 Climbing FAA TRACON SMA TRACON (SMA)
11:49AM 35.1189 -80.7014 55° Northeast 291 335 9,800 2,400 Climbing FAA TRACON SMA TRACON (SMA)
11:50AM 35.1511 -80.6456 55° Northeast 294 338 11,500 2,220 Climbing FAA TRACON SMA TRACON (SMA)
11:50AM 35.1850 -80.5864 55° Northeast 342 394 12,800 1,920 Climbing FAA TRACON SMA TRACON (SMA)
11:51AM 35.2200 -80.5253 55° Northeast 354 407 14,000 1,260 Climbing FAA TRACON SMA TRACON (SMA)
11:52AM 35.2647 -80.4472 54° Northeast 357 411 14,500 1,560 Climbing FAA TRACON SMA TRACON (SMA)
11:52AM 35.3019 -80.3833 55° Northeast 374 430 16,100 2,520 Climbing FAA TRACON SMA TRACON (SMA)
11:53AM 35.3447 -80.3081 55° Northeast 385 443 17,900 2,040 Climbing FAA TRACON SMA TRACON (SMA)
11:54AM 35.3839 -80.2392 56° Northeast 395 455 18,800 1,860 Climbing FAA TRACON SMA TRACON (SMA)
11:54AM 35.4286 -80.1586 71° East 408 470 20,400 2,460 Climbing FAA TRACON SMA TRACON (SMA)
11:55AM 35.4547 -80.0658 73° East 413 475 22,100 2,160 Climbing FAA TRACON SMA TRACON (SMA)
11:56AM 35.4758 -79.9808 73° East 422 486 23,300 1,800 Climbing FAA TRACON SMA TRACON (SMA)
11:56AM 35.5003 -79.8831 71° East 430 495 24,500 1,020 Climbing FAA TRACON SMA TRACON (SMA)
11:57AM 35.5044 -79.8678 72° East 432 497 24,700 1,860 Climbing FAA TRACON SMA TRACON (SMA)
11:57AM 35.5494 -79.6919 71° East 435 501 27,000 1,380 Climbing Washington Center
11:58AM 35.5878 -79.5508 67° East 441 507 27,000  Level Washington Center
11:59AM 35.6314 -79.4253 42° Northeast 436 502 27,000  Level Washington Center
12:00PM 35.7289 -79.3175 41° Northeast 425 489 27,000  Level Washington Center
12:01PM 35.8217 -79.2167 41° Northeast 431 496 27,000  Level Washington Center
12:02PM 35.9144 -79.1158 41° Northeast 431 496 27,000  Level Washington Center
12:03PM 35.9961 -79.0272 42° Northeast 436 502 27,000  Level Washington Center
12:04PM 36.0867 -78.9256 41° Northeast 436 502 27,000  Level Washington Center
12:05PM 36.1792 -78.8242 42° Northeast 436 502 27,000  Level Washington Center
12:06PM 36.2694 -78.7247 42° Northeast 436 502 27,000  Level Washington Center
12:07PM 36.3619 -78.6200 41° Northeast 436 502 27,000  Level Washington Center
12:08PM 36.4628 -78.5103 42° Northeast 436 502 27,000  Level Washington Center
12:09PM 36.5528 -78.4078 42° Northeast 431 496 27,000  Level Washington Center
12:10PM 36.6428 -78.3075 43° Northeast 436 502 27,000  Level Washington Center
12:11PM 36.7306 -78.2042 42° Northeast 431 496 27,000  Level Washington Center
12:12PM 36.8225 -78.1008 42° Northeast 431 496 27,000  Level Washington Center
12:13PM 36.9122 -78.0000 42° Northeast 431 496 27,000  Level Washington Center
12:14PM 37.0017 -77.8986 43° Northeast 431 496 27,000  Level Washington Center
12:15PM 37.0914 -77.7947 43° Northeast 431 496 27,000  Level Washington Center
12:16PM 37.1722 -77.7006 41° Northeast 431 496 27,000  Level Washington Center
12:17PM 37.2658 -77.5986 22° Northeast 436 502 27,000 -660 Level Washington Center
12:18PM 37.3836 -77.5392 18° North 425 489 25,700 -1,680 Descending Washington Center
12:19PM 37.4950 -77.4922 18° North 409 471 23,700 -1,860 Descending Washington Center
12:20PM 37.6019 -77.4475 18° North 409 471 22,000 -1,920 Descending Washington Center
12:21PM 37.7050 -77.4056 18° North 404 465 19,900 -1,980 Descending Washington Center
12:22PM 37.8056 -77.3633 18° North 392 451 18,100 -1,560 Descending Washington Center
12:23PM 37.9022 -77.3233 19° North 375 432 16,800 -1,560 Descending Washington Center
12:24PM 37.9986 -77.2808 18° North 367 422 15,000 -1,680 Descending Washington Center
12:25PM 38.0825 -77.2458 18° North 361 415 13,500 -1,620 Descending Washington Center
12:26PM 38.1728 -77.2081 18° North 351 404 11,800 -1,680 Descending Washington Center
12:27PM 38.2692 -77.1681 11° North 336 387 10,200 -960 Descending Washington Center
12:28PM 38.3550 -77.1458 10° North 331 381 10,000 -120 Descending Washington Center
12:29PM 38.4386 -77.1264 10° North 325 374 10,000  Level Washington Center
12:30PM 38.5286 -77.1069 North 307 353 10,000  Level Washington Center
12:31PM 38.6100 -77.0900 11° North 297 342 10,000 -480 Level Washington Center
12:32PM 38.6917 -77.0706 356° North 297 342 9,100 -1,320 Descending Washington Center
12:33PM 38.7708 -77.0775 332° Northwest 289 333 7,500 -1,200 Descending Washington Center
12:34PM 38.8350 -77.1214 312° West 266 306 6,800 -960 Descending Washington Center
12:35PM 38.8667 -77.1667 314° West 223 257 5,700 -960 Descending Potomac TRACON
12:36PM 38.9167 -77.2333 322° Northwest 208 239 5,000 -420 Descending Potomac TRACON
12:37PM 38.9500 -77.2667 333° Northwest 186 214 4,900 -60 Descending Potomac TRACON
12:38PM 39.0000 -77.3000 49° Northeast 196 226 4,900 -360 Level Potomac TRACON
12:39PM 39.0333 -77.2500 123° Southeast 184 212 4,300 -900 Descending Potomac TRACON
12:40PM 39.0167 -77.2167 131° Southeast 170 196 3,100 -840 Descending Potomac TRACON
12:41PM 38.9833 -77.1667 131° Southeast 175 201 2,700 -420 Descending Potomac TRACON